sensor_id;sensor_type;location;lat;lon;timestamp;temperature;humidity
61591;DHT22;71994;52.410;-1.966;2024-03-23T00:51:08;15.90;53.60
61591;DHT22;71994;52.410;-1.966;2024-03-23T00:54:12;15.90;53.60
61591;DHT22;71994;52.410;-1.966;2024-03-23T00:57:15;15.90;53.60
61591;DHT22;71994;52.410;-1.966;2024-03-23T01:00:22;15.80;53.50
61591;DHT22;71994;52.410;-1.966;2024-03-23T01:03:25;15.90;53.60
61591;DHT22;71994;52.410;-1.966;2024-03-23T01:06:28;15.90;53.60
61591;DHT22;71994;52.410;-1.966;2024-03-23T01:09:32;15.90;53.50
61591;DHT22;71994;52.410;-1.966;2024-03-23T01:12:35;15.80;53.50
61591;DHT22;71994;52.410;-1.966;2024-03-23T01:15:48;15.80;53.50
61591;DHT22;71994;52.410;-1.966;2024-03-23T01:18:51;15.80;53.50
61591;DHT22;71994;52.410;-1.966;2024-03-23T01:21:55;15.80;53.50
61591;DHT22;71994;52.410;-1.966;2024-03-23T01:24:58;15.80;53.50
61591;DHT22;71994;52.410;-1.966;2024-03-23T01:28:02;15.80;53.50
61591;DHT22;71994;52.410;-1.966;2024-03-23T01:31:08;15.80;53.50
61591;DHT22;71994;52.410;-1.966;2024-03-23T01:34:12;15.80;53.40
61591;DHT22;71994;52.410;-1.966;2024-03-23T01:37:15;15.80;53.40
61591;DHT22;71994;52.410;-1.966;2024-03-23T01:40:19;15.80;53.40
61591;DHT22;71994;52.410;-1.966;2024-03-23T01:43:22;15.70;53.40
61591;DHT22;71994;52.410;-1.966;2024-03-23T01:46:28;15.70;53.40
61591;DHT22;71994;52.410;-1.966;2024-03-23T01:49:32;15.70;53.40
61591;DHT22;71994;52.410;-1.966;2024-03-23T01:52:36;15.70;53.40
61591;DHT22;71994;52.410;-1.966;2024-03-23T01:55:39;15.70;53.40
61591;DHT22;71994;52.410;-1.966;2024-03-23T01:58:43;15.70;53.40
61591;DHT22;71994;52.410;-1.966;2024-03-23T02:01:49;15.70;53.40
61591;DHT22;71994;52.410;-1.966;2024-03-23T02:04:52;15.70;53.40
61591;DHT22;71994;52.410;-1.966;2024-03-23T02:07:56;15.60;53.40
61591;DHT22;71994;52.410;-1.966;2024-03-23T02:10:59;15.60;53.40
61591;DHT22;71994;52.410;-1.966;2024-03-23T02:14:03;15.70;53.40
61591;DHT22;71994;52.410;-1.966;2024-03-23T02:17:09;15.60;53.30
61591;DHT22;71994;52.410;-1.966;2024-03-23T02:20:13;15.60;53.40
61591;DHT22;71994;52.410;-1.966;2024-03-23T02:23:19;15.60;53.40
61591;DHT22;71994;52.410;-1.966;2024-03-23T02:26:22;15.60;53.40
61591;DHT22;71994;52.410;-1.966;2024-03-23T02:29:26;15.60;53.40
61591;DHT22;71994;52.410;-1.966;2024-03-23T02:32:29;15.60;53.30
61591;DHT22;71994;52.410;-1.966;2024-03-23T02:35:33;15.60;53.40
61591;DHT22;71994;52.410;-1.966;2024-03-23T02:38:39;15.60;53.40
61591;DHT22;71994;52.410;-1.966;2024-03-23T02:41:42;15.60;53.30
61591;DHT22;71994;52.410;-1.966;2024-03-23T02:44:46;15.60;53.30
61591;DHT22;71994;52.410;-1.966;2024-03-23T02:47:49;15.50;53.30
61591;DHT22;71994;52.410;-1.966;2024-03-23T02:50:53;15.50;53.30
61591;DHT22;71994;52.410;-1.966;2024-03-23T02:53:59;15.50;53.40
61591;DHT22;71994;52.410;-1.966;2024-03-23T02:57:03;15.50;53.40
61591;DHT22;71994;52.410;-1.966;2024-03-23T03:00:07;15.50;53.40
61591;DHT22;71994;52.410;-1.966;2024-03-23T03:03:10;15.50;53.40
61591;DHT22;71994;52.410;-1.966;2024-03-23T03:06:23;15.40;53.40
61591;DHT22;71994;52.410;-1.966;2024-03-23T03:09:29;15.50;53.40
61591;DHT22;71994;52.410;-1.966;2024-03-23T03:12:32;15.40;53.40
61591;DHT22;71994;52.410;-1.966;2024-03-23T03:15:36;15.40;53.40
61591;DHT22;71994;52.410;-1.966;2024-03-23T03:18:39;15.40;53.30
61591;DHT22;71994;52.410;-1.966;2024-03-23T03:21:43;15.40;53.40
61591;DHT22;71994;52.410;-1.966;2024-03-23T03:24:49;15.40;53.40
61591;DHT22;71994;52.410;-1.966;2024-03-23T03:27:52;15.40;53.40
61591;DHT22;71994;52.410;-1.966;2024-03-23T03:30:56;15.30;53.40
61591;DHT22;71994;52.410;-1.966;2024-03-23T03:33:59;15.30;53.40
61591;DHT22;71994;52.410;-1.966;2024-03-23T03:37:03;15.30;53.40
61591;DHT22;71994;52.410;-1.966;2024-03-23T03:40:11;15.40;53.40
61591;DHT22;71994;52.410;-1.966;2024-03-23T03:43:14;15.30;53.40
61591;DHT22;71994;52.410;-1.966;2024-03-23T03:46:18;15.40;53.20
61591;DHT22;71994;52.410;-1.966;2024-03-23T03:49:21;15.40;53.10
61591;DHT22;71994;52.410;-1.966;2024-03-23T03:52:24;15.40;53.10
61591;DHT22;71994;52.410;-1.966;2024-03-23T03:55:31;15.40;53.00
61591;DHT22;71994;52.410;-1.966;2024-03-23T03:58:34;15.40;53.00
61591;DHT22;71994;52.410;-1.966;2024-03-23T04:01:38;15.40;52.90
61591;DHT22;71994;52.410;-1.966;2024-03-23T04:04:41;15.40;52.60
61591;DHT22;71994;52.410;-1.966;2024-03-23T04:07:45;15.50;52.80
61591;DHT22;71994;52.410;-1.966;2024-03-23T04:10:51;15.50;52.80
61591;DHT22;71994;52.410;-1.966;2024-03-23T04:13:54;15.60;52.50
61591;DHT22;71994;52.410;-1.966;2024-03-23T04:16:58;15.60;52.70
61591;DHT22;71994;52.410;-1.966;2024-03-23T04:20:03;15.60;52.30
61591;DHT22;71994;52.410;-1.966;2024-03-23T04:23:07;15.70;52.30
61591;DHT22;71994;52.410;-1.966;2024-03-23T04:26:13;15.80;52.10
61591;DHT22;71994;52.410;-1.966;2024-03-23T04:29:16;15.80;51.60
61591;DHT22;71994;52.410;-1.966;2024-03-23T04:32:20;15.80;51.60
61591;DHT22;71994;52.410;-1.966;2024-03-23T04:35:23;15.80;51.50
61591;DHT22;71994;52.410;-1.966;2024-03-23T04:38:27;15.70;51.70
61591;DHT22;71994;52.410;-1.966;2024-03-23T04:41:33;15.80;51.40
61591;DHT22;71994;52.410;-1.966;2024-03-23T04:44:36;15.80;51.30
61591;DHT22;71994;52.410;-1.966;2024-03-23T04:47:40;15.70;51.10
61591;DHT22;71994;52.410;-1.966;2024-03-23T04:50:44;15.70;51.00
61591;DHT22;71994;52.410;-1.966;2024-03-23T04:53:47;15.70;50.90
61591;DHT22;71994;52.410;-1.966;2024-03-23T04:56:54;15.60;51.20
61591;DHT22;71994;52.410;-1.966;2024-03-23T04:59:57;15.60;51.20
61591;DHT22;71994;52.410;-1.966;2024-03-23T05:03:02;15.60;51.50
61591;DHT22;71994;52.410;-1.966;2024-03-23T05:06:06;15.70;51.50
61591;DHT22;71994;52.410;-1.966;2024-03-23T05:09:10;15.60;51.70
61591;DHT22;71994;52.410;-1.966;2024-03-23T05:12:16;15.60;51.80
61591;DHT22;71994;52.410;-1.966;2024-03-23T05:15:19;15.60;51.90
61591;DHT22;71994;52.410;-1.966;2024-03-23T05:18:23;15.60;51.80
61591;DHT22;71994;52.410;-1.966;2024-03-23T05:21:27;15.60;51.90
61591;DHT22;71994;52.410;-1.966;2024-03-23T05:24:31;15.50;51.90
61591;DHT22;71994;52.410;-1.966;2024-03-23T05:27:37;15.50;51.90
61591;DHT22;71994;52.410;-1.966;2024-03-23T05:30:41;15.50;51.90
61591;DHT22;71994;52.410;-1.966;2024-03-23T05:33:44;15.50;51.90
61591;DHT22;71994;52.410;-1.966;2024-03-23T05:36:48;15.50;51.90
61591;DHT22;71994;52.410;-1.966;2024-03-23T05:39:52;15.40;52.00
61591;DHT22;71994;52.410;-1.966;2024-03-23T05:42:58;15.50;52.00
61591;DHT22;71994;52.410;-1.966;2024-03-23T05:46:04;15.40;52.10
61591;DHT22;71994;52.410;-1.966;2024-03-23T05:49:08;15.40;52.10
61591;DHT22;71994;52.410;-1.966;2024-03-23T05:52:13;15.40;52.00
61591;DHT22;71994;52.410;-1.966;2024-03-23T05:55:16;15.40;52.00
61591;DHT22;71994;52.410;-1.966;2024-03-23T05:58:23;15.40;51.90
61591;DHT22;71994;52.410;-1.966;2024-03-23T06:01:26;15.40;51.50
61591;DHT22;71994;52.410;-1.966;2024-03-23T06:04:30;15.40;51.60
61591;DHT22;71994;52.410;-1.966;2024-03-23T06:07:33;15.40;51.50
61591;DHT22;71994;52.410;-1.966;2024-03-23T06:10:37;15.50;51.70
61591;DHT22;71994;52.410;-1.966;2024-03-23T06:13:43;15.50;51.60
61591;DHT22;71994;52.410;-1.966;2024-03-23T06:16:46;15.50;51.40
61591;DHT22;71994;52.410;-1.966;2024-03-23T06:19:50;15.50;51.80
61591;DHT22;71994;52.410;-1.966;2024-03-23T06:22:54;15.60;51.60
61591;DHT22;71994;52.410;-1.966;2024-03-23T06:25:57;15.60;51.90
61591;DHT22;71994;52.410;-1.966;2024-03-23T06:29:03;15.60;51.80
61591;DHT22;71994;52.410;-1.966;2024-03-23T06:32:08;15.70;51.90
61591;DHT22;71994;52.410;-1.966;2024-03-23T06:35:11;15.70;51.70
61591;DHT22;71994;52.410;-1.966;2024-03-23T06:38:15;15.70;51.60
61591;DHT22;71994;52.410;-1.966;2024-03-23T06:41:19;15.80;51.40
61591;DHT22;71994;52.410;-1.966;2024-03-23T06:44:25;15.80;51.20
61591;DHT22;71994;52.410;-1.966;2024-03-23T06:47:29;15.80;50.90
61591;DHT22;71994;52.410;-1.966;2024-03-23T06:50:32;15.80;51.10
61591;DHT22;71994;52.410;-1.966;2024-03-23T06:53:36;15.70;50.70
61591;DHT22;71994;52.410;-1.966;2024-03-23T06:56:39;15.70;50.60
61591;DHT22;71994;52.410;-1.966;2024-03-23T06:59:46;15.70;50.80
61591;DHT22;71994;52.410;-1.966;2024-03-23T07:02:49;15.70;50.50
61591;DHT22;71994;52.410;-1.966;2024-03-23T07:05:53;15.60;50.40
61591;DHT22;71994;52.410;-1.966;2024-03-23T07:09:00;15.60;50.50
61591;DHT22;71994;52.410;-1.966;2024-03-23T07:12:04;15.60;51.20
61591;DHT22;71994;52.410;-1.966;2024-03-23T07:15:11;15.70;51.40
61591;DHT22;71994;52.410;-1.966;2024-03-23T07:18:14;15.70;51.40
61591;DHT22;71994;52.410;-1.966;2024-03-23T07:21:18;15.80;51.40
61591;DHT22;71994;52.410;-1.966;2024-03-23T07:24:21;15.90;51.30
61591;DHT22;71994;52.410;-1.966;2024-03-23T07:27:25;16.00;51.20
61591;DHT22;71994;52.410;-1.966;2024-03-23T07:30:31;16.10;51.00
61591;DHT22;71994;52.410;-1.966;2024-03-23T07:33:35;16.30;50.90
61591;DHT22;71994;52.410;-1.966;2024-03-23T07:36:39;16.40;50.70
61591;DHT22;71994;52.410;-1.966;2024-03-23T07:39:42;16.60;50.60
61591;DHT22;71994;52.410;-1.966;2024-03-23T07:42:46;16.70;50.40
61591;DHT22;71994;52.410;-1.966;2024-03-23T07:45:55;16.80;50.20
61591;DHT22;71994;52.410;-1.966;2024-03-23T07:48:59;17.00;50.00
61591;DHT22;71994;52.410;-1.966;2024-03-23T07:52:02;17.10;49.80
61591;DHT22;71994;52.410;-1.966;2024-03-23T07:55:08;17.20;49.60
61591;DHT22;71994;52.410;-1.966;2024-03-23T07:58:12;17.30;49.40
61591;DHT22;71994;52.410;-1.966;2024-03-23T08:01:18;17.40;49.20
61591;DHT22;71994;52.410;-1.966;2024-03-23T08:04:22;17.60;49.10
61591;DHT22;71994;52.410;-1.966;2024-03-23T08:07:25;17.60;48.80
61591;DHT22;71994;52.410;-1.966;2024-03-23T08:10:29;17.60;48.80
61591;DHT22;71994;52.410;-1.966;2024-03-23T08:13:32;17.60;48.90
61591;DHT22;71994;52.410;-1.966;2024-03-23T08:16:39;17.70;48.80
61591;DHT22;71994;52.410;-1.966;2024-03-23T08:19:45;17.80;48.80
61591;DHT22;71994;52.410;-1.966;2024-03-23T08:22:49;17.80;48.70
61591;DHT22;71994;52.410;-1.966;2024-03-23T08:25:52;17.80;48.70
61591;DHT22;71994;52.410;-1.966;2024-03-23T08:28:56;17.80;48.60
61591;DHT22;71994;52.410;-1.966;2024-03-23T08:32:02;17.90;48.50
61591;DHT22;71994;52.410;-1.966;2024-03-23T08:35:07;17.90;48.60
61591;DHT22;71994;52.410;-1.966;2024-03-23T08:38:10;17.80;48.60
61591;DHT22;71994;52.410;-1.966;2024-03-23T08:41:14;17.80;48.70
61591;DHT22;71994;52.410;-1.966;2024-03-23T08:44:17;17.80;48.70
61591;DHT22;71994;52.410;-1.966;2024-03-23T08:47:24;17.90;48.70
61591;DHT22;71994;52.410;-1.966;2024-03-23T08:50:27;17.80;48.80
61591;DHT22;71994;52.410;-1.966;2024-03-23T08:53:34;17.80;48.80
61591;DHT22;71994;52.410;-1.966;2024-03-23T08:56:38;17.80;48.90
61591;DHT22;71994;52.410;-1.966;2024-03-23T08:59:43;17.70;48.90
61591;DHT22;71994;52.410;-1.966;2024-03-23T09:02:53;17.70;49.10
61591;DHT22;71994;52.410;-1.966;2024-03-23T09:05:56;17.60;49.20
61591;DHT22;71994;52.410;-1.966;2024-03-23T09:09:00;17.60;49.30
61591;DHT22;71994;52.410;-1.966;2024-03-23T09:12:04;17.50;49.30
61591;DHT22;71994;52.410;-1.966;2024-03-23T09:15:08;17.50;49.40
61591;DHT22;71994;52.410;-1.966;2024-03-23T09:18:23;17.50;49.50
61591;DHT22;71994;52.410;-1.966;2024-03-23T09:21:28;17.40;49.60
61591;DHT22;71994;52.410;-1.966;2024-03-23T09:24:38;17.40;49.70
61591;DHT22;71994;52.410;-1.966;2024-03-23T09:27:46;17.30;49.90
61591;DHT22;71994;52.410;-1.966;2024-03-23T09:30:50;17.20;49.90
61591;DHT22;71994;52.410;-1.966;2024-03-23T09:33:58;17.20;50.00
61591;DHT22;71994;52.410;-1.966;2024-03-23T09:37:01;17.10;50.10
61591;DHT22;71994;52.410;-1.966;2024-03-23T09:40:10;17.10;50.20
61591;DHT22;71994;52.410;-1.966;2024-03-23T09:43:14;17.00;50.30
61591;DHT22;71994;52.410;-1.966;2024-03-23T09:46:18;17.00;50.30
61591;DHT22;71994;52.410;-1.966;2024-03-23T09:49:26;17.00;50.30
61591;DHT22;71994;52.410;-1.966;2024-03-23T09:52:30;16.90;50.50
61591;DHT22;71994;52.410;-1.966;2024-03-23T09:55:34;16.90;50.60
61591;DHT22;71994;52.410;-1.966;2024-03-23T09:58:41;16.80;50.60
61591;DHT22;71994;52.410;-1.966;2024-03-23T10:01:47;16.80;50.60
61591;DHT22;71994;52.410;-1.966;2024-03-23T10:04:53;16.80;50.70
61591;DHT22;71994;52.410;-1.966;2024-03-23T10:07:57;16.70;50.80
61591;DHT22;71994;52.410;-1.966;2024-03-23T10:11:12;16.70;50.80
61591;DHT22;71994;52.410;-1.966;2024-03-23T10:14:29;16.70;50.90
61591;DHT22;71994;52.410;-1.966;2024-03-23T10:17:32;16.70;50.80
61591;DHT22;71994;52.410;-1.966;2024-03-23T10:20:42;16.70;50.90
61591;DHT22;71994;52.410;-1.966;2024-03-23T10:23:46;16.70;50.90
61591;DHT22;71994;52.410;-1.966;2024-03-23T10:26:56;16.80;50.80
61591;DHT22;71994;52.410;-1.966;2024-03-23T10:30:14;16.80;50.70
61591;DHT22;71994;52.410;-1.966;2024-03-23T10:33:20;16.80;50.70
61591;DHT22;71994;52.410;-1.966;2024-03-23T10:36:27;16.80;50.60
61591;DHT22;71994;52.410;-1.966;2024-03-23T10:39:37;16.90;50.50
61591;DHT22;71994;52.410;-1.966;2024-03-23T10:42:48;17.00;50.40
61591;DHT22;71994;52.410;-1.966;2024-03-23T10:45:54;17.10;50.20
61591;DHT22;71994;52.410;-1.966;2024-03-23T10:48:58;17.10;50.00
61591;DHT22;71994;52.410;-1.966;2024-03-23T10:52:06;17.20;49.90
61591;DHT22;71994;52.410;-1.966;2024-03-23T10:55:10;17.20;49.70
61591;DHT22;71994;52.410;-1.966;2024-03-23T10:58:14;17.30;49.70
61591;DHT22;71994;52.410;-1.966;2024-03-23T11:01:18;17.30;49.60
61591;DHT22;71994;52.410;-1.966;2024-03-23T11:04:34;17.30;49.60
61591;DHT22;71994;52.410;-1.966;2024-03-23T11:07:50;17.30;49.50
61591;DHT22;71994;52.410;-1.966;2024-03-23T11:10:53;17.30;49.50
61591;DHT22;71994;52.410;-1.966;2024-03-23T11:14:22;17.30;49.40
61591;DHT22;71994;52.410;-1.966;2024-03-23T11:17:27;17.30;49.40
61591;DHT22;71994;52.410;-1.966;2024-03-23T11:20:34;17.30;49.50
61591;DHT22;71994;52.410;-1.966;2024-03-23T11:23:42;17.30;49.50
61591;DHT22;71994;52.410;-1.966;2024-03-23T11:26:46;17.20;49.60
61591;DHT22;71994;52.410;-1.966;2024-03-23T11:29:51;17.20;49.60
61591;DHT22;71994;52.410;-1.966;2024-03-23T11:32:56;17.20;49.60
61591;DHT22;71994;52.410;-1.966;2024-03-23T11:36:00;17.20;49.70
61591;DHT22;71994;52.410;-1.966;2024-03-23T11:39:15;17.10;49.80
61591;DHT22;71994;52.410;-1.966;2024-03-23T11:42:19;17.10;49.90
61591;DHT22;71994;52.410;-1.966;2024-03-23T11:45:24;17.10;49.90
61591;DHT22;71994;52.410;-1.966;2024-03-23T11:48:28;17.10;50.10
61591;DHT22;71994;52.410;-1.966;2024-03-23T11:51:37;17.10;50.10
61591;DHT22;71994;52.410;-1.966;2024-03-23T11:54:45;17.00;50.20
61591;DHT22;71994;52.410;-1.966;2024-03-23T11:57:49;17.00;50.30
61591;DHT22;71994;52.410;-1.966;2024-03-23T12:00:57;17.00;50.40
61591;DHT22;71994;52.410;-1.966;2024-03-23T12:04:04;16.90;50.30
61591;DHT22;71994;52.410;-1.966;2024-03-23T12:07:12;16.90;50.50
61591;DHT22;71994;52.410;-1.966;2024-03-23T12:10:19;16.90;50.60
61591;DHT22;71994;52.410;-1.966;2024-03-23T12:13:24;16.80;50.50
61591;DHT22;71994;52.410;-1.966;2024-03-23T12:16:30;16.90;50.40
61591;DHT22;71994;52.410;-1.966;2024-03-23T12:19:34;17.00;50.20
61591;DHT22;71994;52.410;-1.966;2024-03-23T12:22:37;17.00;50.00
61591;DHT22;71994;52.410;-1.966;2024-03-23T12:25:45;17.10;49.90
61591;DHT22;71994;52.410;-1.966;2024-03-23T12:28:52;17.30;49.70
61591;DHT22;71994;52.410;-1.966;2024-03-23T12:31:55;17.50;49.50
61591;DHT22;71994;52.410;-1.966;2024-03-23T12:34:59;17.60;49.30
61591;DHT22;71994;52.410;-1.966;2024-03-23T12:38:03;17.70;49.00
61591;DHT22;71994;52.410;-1.966;2024-03-23T12:41:10;17.80;48.80
61591;DHT22;71994;52.410;-1.966;2024-03-23T12:44:13;18.00;48.50
61591;DHT22;71994;52.410;-1.966;2024-03-23T12:47:17;18.00;48.40
61591;DHT22;71994;52.410;-1.966;2024-03-23T12:50:21;18.10;48.40
61591;DHT22;71994;52.410;-1.966;2024-03-23T12:53:26;18.10;48.20
61591;DHT22;71994;52.410;-1.966;2024-03-23T12:56:33;18.10;48.10
61591;DHT22;71994;52.410;-1.966;2024-03-23T12:59:37;18.10;48.10
61591;DHT22;71994;52.410;-1.966;2024-03-23T13:02:41;18.10;48.20
61591;DHT22;71994;52.410;-1.966;2024-03-23T13:05:52;18.10;48.40
61591;DHT22;71994;52.410;-1.966;2024-03-23T13:08:57;18.00;48.70
61591;DHT22;71994;52.410;-1.966;2024-03-23T13:12:12;18.00;48.80
61591;DHT22;71994;52.410;-1.966;2024-03-23T13:15:15;17.90;48.90
61591;DHT22;71994;52.410;-1.966;2024-03-23T13:18:19;17.80;49.00
61591;DHT22;71994;52.410;-1.966;2024-03-23T13:21:27;17.80;49.10
61591;DHT22;71994;52.410;-1.966;2024-03-23T13:24:34;17.70;49.20
61591;DHT22;71994;52.410;-1.966;2024-03-23T13:27:45;17.70;49.30
61591;DHT22;71994;52.410;-1.966;2024-03-23T13:30:53;17.70;49.30
61591;DHT22;71994;52.410;-1.966;2024-03-23T13:33:57;17.60;49.30
61591;DHT22;71994;52.410;-1.966;2024-03-23T13:37:03;17.60;49.30
61591;DHT22;71994;52.410;-1.966;2024-03-23T13:40:08;17.60;49.40
61591;DHT22;71994;52.410;-1.966;2024-03-23T13:43:20;17.50;49.40
61591;DHT22;71994;52.410;-1.966;2024-03-23T13:46:23;17.50;49.40
61591;DHT22;71994;52.410;-1.966;2024-03-23T13:49:28;17.50;49.50
61591;DHT22;71994;52.410;-1.966;2024-03-23T13:52:31;17.40;49.60
61591;DHT22;71994;52.410;-1.966;2024-03-23T13:55:35;17.40;49.60
61591;DHT22;71994;52.410;-1.966;2024-03-23T13:58:42;17.30;49.70
61591;DHT22;71994;52.410;-1.966;2024-03-23T14:01:45;17.30;49.70
61591;DHT22;71994;52.410;-1.966;2024-03-23T14:04:49;17.20;49.80
61591;DHT22;71994;52.410;-1.966;2024-03-23T14:07:52;17.20;49.90
61591;DHT22;71994;52.410;-1.966;2024-03-23T14:10:56;17.20;49.90
61591;DHT22;71994;52.410;-1.966;2024-03-23T14:14:03;17.10;49.90
61591;DHT22;71994;52.410;-1.966;2024-03-23T14:17:07;17.10;50.00
61591;DHT22;71994;52.410;-1.966;2024-03-23T14:20:11;17.10;49.90
61591;DHT22;71994;52.410;-1.966;2024-03-23T14:23:18;17.10;49.90
61591;DHT22;71994;52.410;-1.966;2024-03-23T14:26:21;17.00;49.80
61591;DHT22;71994;52.410;-1.966;2024-03-23T14:29:28;17.00;49.90
61591;DHT22;71994;52.410;-1.966;2024-03-23T14:32:31;17.00;49.90
61591;DHT22;71994;52.410;-1.966;2024-03-23T14:35:36;16.90;49.90
61591;DHT22;71994;52.410;-1.966;2024-03-23T14:38:41;16.90;49.70
61591;DHT22;71994;52.410;-1.966;2024-03-23T14:41:45;16.90;49.90
61591;DHT22;71994;52.410;-1.966;2024-03-23T14:44:51;16.80;49.90
61591;DHT22;71994;52.410;-1.966;2024-03-23T14:47:55;16.80;49.90
61591;DHT22;71994;52.410;-1.966;2024-03-23T14:50:58;16.80;49.80
61591;DHT22;71994;52.410;-1.966;2024-03-23T14:54:08;16.80;49.80
61591;DHT22;71994;52.410;-1.966;2024-03-23T14:57:11;16.70;49.80
61591;DHT22;71994;52.410;-1.966;2024-03-23T15:00:18;16.70;49.80
61591;DHT22;71994;52.410;-1.966;2024-03-23T15:03:22;16.70;49.80
61591;DHT22;71994;52.410;-1.966;2024-03-23T15:06:25;16.60;49.70
61591;DHT22;71994;52.410;-1.966;2024-03-23T15:09:29;16.70;49.60
61591;DHT22;71994;52.410;-1.966;2024-03-23T15:12:32;16.60;49.80
61591;DHT22;71994;52.410;-1.966;2024-03-23T15:15:43;16.60;49.90
61591;DHT22;71994;52.410;-1.966;2024-03-23T15:18:47;16.60;50.10
61591;DHT22;71994;52.410;-1.966;2024-03-23T15:21:51;16.70;50.00
61591;DHT22;71994;52.410;-1.966;2024-03-23T15:24:54;16.80;49.70
61591;DHT22;71994;52.410;-1.966;2024-03-23T15:27:58;16.80;49.60
61591;DHT22;71994;52.410;-1.966;2024-03-23T15:31:05;16.80;49.40
61591;DHT22;71994;52.410;-1.966;2024-03-23T15:34:09;16.90;49.20
61591;DHT22;71994;52.410;-1.966;2024-03-23T15:37:12;17.00;49.00
61591;DHT22;71994;52.410;-1.966;2024-03-23T15:40:16;17.00;48.90
61591;DHT22;71994;52.410;-1.966;2024-03-23T15:43:34;17.10;48.70
61591;DHT22;71994;52.410;-1.966;2024-03-23T15:46:43;17.10;48.60
61591;DHT22;71994;52.410;-1.966;2024-03-23T15:49:46;17.20;48.40
61591;DHT22;71994;52.410;-1.966;2024-03-23T15:52:50;17.20;48.30
61591;DHT22;71994;52.410;-1.966;2024-03-23T15:55:54;17.20;48.30
61591;DHT22;71994;52.410;-1.966;2024-03-23T15:58:57;17.20;48.20
61591;DHT22;71994;52.410;-1.966;2024-03-23T16:02:04;17.30;48.20
61591;DHT22;71994;52.410;-1.966;2024-03-23T16:05:08;17.30;48.20
61591;DHT22;71994;52.410;-1.966;2024-03-23T16:08:14;17.30;48.40
61591;DHT22;71994;52.410;-1.966;2024-03-23T16:11:20;17.20;48.30
61591;DHT22;71994;52.410;-1.966;2024-03-23T16:14:23;17.20;48.40
61591;DHT22;71994;52.410;-1.966;2024-03-23T16:17:30;17.20;48.40
61591;DHT22;71994;52.410;-1.966;2024-03-23T16:20:36;17.10;48.50
61591;DHT22;71994;52.410;-1.966;2024-03-23T16:23:42;17.20;48.50
61591;DHT22;71994;52.410;-1.966;2024-03-23T16:26:46;17.10;48.40
61591;DHT22;71994;52.410;-1.966;2024-03-23T16:29:51;17.10;48.50
61591;DHT22;71994;52.410;-1.966;2024-03-23T16:33:00;17.10;48.60
61591;DHT22;71994;52.410;-1.966;2024-03-23T16:36:10;17.10;48.80
61591;DHT22;71994;52.410;-1.966;2024-03-23T16:39:14;17.00;48.90
61591;DHT22;71994;52.410;-1.966;2024-03-23T16:42:20;17.00;49.00
61591;DHT22;71994;52.410;-1.966;2024-03-23T16:45:26;17.00;49.10
61591;DHT22;71994;52.410;-1.966;2024-03-23T16:48:33;16.90;49.10
61591;DHT22;71994;52.410;-1.966;2024-03-23T16:51:37;16.90;49.20
61591;DHT22;71994;52.410;-1.966;2024-03-23T16:54:46;16.80;49.20
61591;DHT22;71994;52.410;-1.966;2024-03-23T16:57:51;16.80;49.20
61591;DHT22;71994;52.410;-1.966;2024-03-23T17:00:56;16.80;49.40
61591;DHT22;71994;52.410;-1.966;2024-03-23T17:04:02;16.70;49.40
61591;DHT22;71994;52.410;-1.966;2024-03-23T17:07:09;16.70;49.50
61591;DHT22;71994;52.410;-1.966;2024-03-23T17:10:12;16.70;49.30
61591;DHT22;71994;52.410;-1.966;2024-03-23T17:13:16;16.80;49.10
61591;DHT22;71994;52.410;-1.966;2024-03-23T17:16:20;16.90;49.10
61591;DHT22;71994;52.410;-1.966;2024-03-23T17:19:26;17.00;48.90
61591;DHT22;71994;52.410;-1.966;2024-03-23T17:22:30;17.00;48.80
61591;DHT22;71994;52.410;-1.966;2024-03-23T17:25:33;17.00;48.60
61591;DHT22;71994;52.410;-1.966;2024-03-23T17:28:37;17.10;48.60
61591;DHT22;71994;52.410;-1.966;2024-03-23T17:31:41;17.10;48.50
61591;DHT22;71994;52.410;-1.966;2024-03-23T17:34:47;17.20;48.40
61591;DHT22;71994;52.410;-1.966;2024-03-23T17:37:56;17.30;48.30
61591;DHT22;71994;52.410;-1.966;2024-03-23T17:41:00;17.40;48.00
61591;DHT22;71994;52.410;-1.966;2024-03-23T17:44:04;17.50;47.90
61591;DHT22;71994;52.410;-1.966;2024-03-23T17:47:08;17.60;47.80
61591;DHT22;71994;52.410;-1.966;2024-03-23T17:50:14;17.60;47.70
61591;DHT22;71994;52.410;-1.966;2024-03-23T17:53:20;17.70;47.50
61591;DHT22;71994;52.410;-1.966;2024-03-23T17:56:24;17.80;47.30
61591;DHT22;71994;52.410;-1.966;2024-03-23T17:59:28;17.90;47.20
61591;DHT22;71994;52.410;-1.966;2024-03-23T18:02:33;18.00;47.20
61591;DHT22;71994;52.410;-1.966;2024-03-23T18:05:39;18.10;47.20
61591;DHT22;71994;52.410;-1.966;2024-03-23T18:08:43;18.10;47.20
61591;DHT22;71994;52.410;-1.966;2024-03-23T18:11:46;18.10;47.10
61591;DHT22;71994;52.410;-1.966;2024-03-23T18:14:50;18.20;46.90
61591;DHT22;71994;52.410;-1.966;2024-03-23T18:17:54;18.20;47.00
61591;DHT22;71994;52.410;-1.966;2024-03-23T18:21:07;18.30;47.10
61591;DHT22;71994;52.410;-1.966;2024-03-23T18:24:20;18.30;47.10
61591;DHT22;71994;52.410;-1.966;2024-03-23T18:27:24;18.30;47.10
61591;DHT22;71994;52.410;-1.966;2024-03-23T18:30:31;18.30;47.20
61591;DHT22;71994;52.410;-1.966;2024-03-23T18:33:39;18.20;47.20
61591;DHT22;71994;52.410;-1.966;2024-03-23T18:36:46;18.20;47.20
61591;DHT22;71994;52.410;-1.966;2024-03-23T18:39:49;18.10;47.10
61591;DHT22;71994;52.410;-1.966;2024-03-23T18:42:53;18.10;47.30
61591;DHT22;71994;52.410;-1.966;2024-03-23T18:45:56;18.10;47.30
61591;DHT22;71994;52.410;-1.966;2024-03-23T18:49:00;18.00;47.20
61591;DHT22;71994;52.410;-1.966;2024-03-23T18:52:06;18.00;47.10
61591;DHT22;71994;52.410;-1.966;2024-03-23T18:55:10;17.90;47.10
61591;DHT22;71994;52.410;-1.966;2024-03-23T18:58:14;17.90;47.00
61591;DHT22;71994;52.410;-1.966;2024-03-23T19:01:19;17.80;47.40
61591;DHT22;71994;52.410;-1.966;2024-03-23T19:04:23;17.80;47.40
61591;DHT22;71994;52.410;-1.966;2024-03-23T19:07:29;17.70;47.50
61591;DHT22;71994;52.410;-1.966;2024-03-23T19:10:33;17.70;47.50
61591;DHT22;71994;52.410;-1.966;2024-03-23T19:13:36;17.60;47.50
61591;DHT22;71994;52.410;-1.966;2024-03-23T19:16:40;17.60;47.70
61591;DHT22;71994;52.410;-1.966;2024-03-23T19:19:43;17.50;47.90
61591;DHT22;71994;52.410;-1.966;2024-03-23T19:22:50;17.50;47.90
61591;DHT22;71994;52.410;-1.966;2024-03-23T19:25:57;17.40;47.80
61591;DHT22;71994;52.410;-1.966;2024-03-23T19:29:02;17.40;48.00
61591;DHT22;71994;52.410;-1.966;2024-03-23T19:32:08;17.30;48.00
61591;DHT22;71994;52.410;-1.966;2024-03-23T19:35:12;17.30;48.10
61591;DHT22;71994;52.410;-1.966;2024-03-23T19:38:19;17.30;48.20
61591;DHT22;71994;52.410;-1.966;2024-03-23T19:41:23;17.30;48.20
61591;DHT22;71994;52.410;-1.966;2024-03-23T19:44:27;17.30;48.20
61591;DHT22;71994;52.410;-1.966;2024-03-23T19:47:31;17.30;48.10
61591;DHT22;71994;52.410;-1.966;2024-03-23T19:50:34;17.30;47.90
61591;DHT22;71994;52.410;-1.966;2024-03-23T19:53:41;17.40;47.90
61591;DHT22;71994;52.410;-1.966;2024-03-23T19:56:44;17.40;47.90
61591;DHT22;71994;52.410;-1.966;2024-03-23T19:59:48;17.40;47.90